Time;durP1;ratioP1;P1;durP2;ratioP2;P2;SDS_P1;SDS_P2;PMS_P1;PMS_P2;Temp;Humidity;BMP_temperature;BMP_pressure;BME280_temperature;BME280_humidity;BME280_pressure;Samples;Min_cycle;Max_cycle;Signal;HPM_P1;HPM_P2
2022/12/12 00:02:54;;;;;;;;;32.00;29.00;;;;;2.52;59.29;97471.56;6287773;27;96532;-66
2022/12/12 00:05:57;;;;;;;;;31.40;29.00;;;;;2.33;58.93;97451.13;6287960;27;96400;-66
2022/12/12 00:09:02;;;;;;;;;31.00;29.00;;;;;2.28;59.35;97436.81;6292025;27;96854;-67
2022/12/12 00:12:07;;;;;;;;;29.00;27.00;;;;;2.61;59.12;97458.88;6286551;27;96606;-67
2022/12/12 00:15:10;;;;;;;;;33.80;29.80;;;;;2.65;59.00;97457.44;6282669;27;97259;-68
2022/12/12 00:18:14;;;;;;;;;29.00;28.00;;;;;2.74;59.00;97466.00;6282087;27;96695;-67
2022/12/12 00:21:20;;;;;;;;;33.00;28.50;;;;;2.70;58.82;97460.28;6283774;27;98336;-67
2022/12/12 00:24:23;;;;;;;;;34.40;29.60;;;;;2.75;58.91;97460.50;6286340;27;96570;-67
2022/12/12 00:27:28;;;;;;;;;39.20;32.20;;;;;2.72;58.96;97466.25;6283588;27;96386;-67
2022/12/12 00:30:32;;;;;;;;;32.80;30.00;;;;;2.65;59.13;97464.59;6286469;27;96653;-68
2022/12/12 00:33:35;;;;;;;;;34.75;31.00;;;;;2.61;59.60;97458.88;6286509;27;96519;-67
2022/12/12 00:36:39;;;;;;;;;34.60;31.20;;;;;2.65;59.47;97465.41;6289043;27;96306;-67
2022/12/12 00:39:43;;;;;;;;;37.75;32.50;;;;;2.64;58.95;97460.31;6291697;27;96436;-68
2022/12/12 00:42:47;;;;;;;;;33.00;28.40;;;;;2.79;58.65;97463.56;6295499;27;97818;-67
2022/12/12 00:45:52;;;;;;;;;30.40;27.60;;;;;2.73;58.97;97461.75;6290789;27;96873;-68
2022/12/12 00:48:57;;;;;;;;;28.80;26.80;;;;;2.53;59.18;97443.13;6265377;27;96878;-68
2022/12/12 00:52:00;;;;;;;;;31.80;28.00;;;;;2.67;58.89;97451.91;6264301;27;96812;-67
2022/12/12 00:55:04;;;;;;;;;27.40;24.40;;;;;2.58;58.79;97453.97;6272413;27;96861;-67
2022/12/12 00:58:09;;;;;;;;;30.00;28.40;;;;;2.42;59.05;97431.28;6316351;27;96236;-67
2022/12/12 01:01:16;;;;;;;;;28.60;26.00;;;;;2.51;59.08;97451.31;6302203;27;96610;-68
2022/12/12 01:04:20;;;;;;;;;31.00;28.80;;;;;2.56;58.89;97440.88;6290747;27;96913;-67
2022/12/12 01:07:23;;;;;;;;;31.50;28.25;;;;;2.53;58.68;97451.94;6289106;27;97588;-67
2022/12/12 01:10:27;;;;;;;;;28.40;26.40;;;;;2.62;58.56;97441.91;6290198;27;96404;-67
2022/12/12 01:13:32;;;;;;;;;31.40;29.00;;;;;2.70;57.98;97444.34;6290544;27;96571;-67
2022/12/12 01:16:35;;;;;;;;;30.00;28.00;;;;;2.77;57.77;97450.47;6288276;27;96496;-67
2022/12/12 01:19:39;;;;;;;;;31.75;27.00;;;;;2.59;58.18;97421.03;6288263;27;96279;-67
2022/12/12 01:22:43;;;;;;;;;27.40;25.40;;;;;2.58;57.71;97408.75;6289657;27;96743;-67
2022/12/12 01:25:46;;;;;;;;;35.00;30.00;;;;;2.75;57.58;97435.72;6290966;27;97024;-67
2022/12/12 01:28:52;;;;;;;;;27.60;27.00;;;;;2.84;57.79;97442.47;6289490;27;96305;-68
2022/12/12 01:31:56;;;;;;;;;28.00;24.50;;;;;2.73;57.92;97437.78;6281271;27;96481;-67
2022/12/12 01:34:59;;;;;;;;;26.40;22.20;;;;;2.80;58.30;97438.59;6276348;27;96407;-67
2022/12/12 01:38:03;;;;;;;;;27.00;25.00;;;;;2.81;58.47;97432.25;6295951;27;96200;-67
2022/12/12 01:41:06;;;;;;;;;28.33;26.33;;;;;2.70;58.52;97432.88;6303689;27;97038;-67
2022/12/12 01:44:39;;;;;;;;;27.60;26.60;;;;;2.78;58.47;97436.16;6288330;27;97267;-67
2022/12/12 01:47:42;;;;;;;;;24.00;23.00;;;;;2.78;58.40;97435.34;6303795;27;96428;-67
2022/12/12 01:50:46;;;;;;;;;29.00;26.00;;;;;2.65;58.84;97433.50;6288613;27;97007;-67
2022/12/12 01:53:54;;;;;;;;;30.00;28.00;;;;;2.67;58.73;97428.78;6305427;27;96303;-67
2022/12/12 01:57:00;;;;;;;;;27.25;24.25;;;;;2.57;59.36;97436.38;6286678;27;96263;-67
2022/12/12 02:00:09;;;;;;;;;29.20;23.60;;;;;2.57;59.26;97428.41;6280428;27;96403;-66
2022/12/12 02:03:13;;;;;;;;;30.40;27.40;;;;;2.64;59.14;97429.19;6285736;27;97407;-67
2022/12/12 02:06:20;;;;;;;;;29.00;25.00;;;;;2.57;59.04;97439.84;6287160;27;96358;-66
2022/12/12 02:09:25;;;;;;;;;28.50;27.00;;;;;2.55;59.35;97438.41;6288444;27;96159;-67
2022/12/12 02:12:28;;;;;;;;;28.00;26.00;;;;;2.54;59.12;97434.94;6286985;27;96653;-67
2022/12/12 02:15:41;;;;;;;;;27.40;25.40;;;;;2.53;58.94;97428.00;6287875;27;97742;-67
2022/12/12 02:18:53;;;;;;;;;31.40;28.00;;;;;2.59;58.50;97437.00;6288267;27;96348;-67
2022/12/12 02:22:00;;;;;;;;;26.00;23.00;;;;;2.57;58.61;97433.72;6287504;27;96839;-66
2022/12/12 02:25:33;;;;;;;;;25.60;24.00;;;;;2.57;58.82;97439.03;6302811;27;96710;-66
2022/12/12 02:29:04;;;;;;;;;27.00;24.50;;;;;2.46;58.80;97431.69;6287478;27;96135;-67
2022/12/12 02:32:21;;;;;;;;;28.00;26.67;;;;;2.59;58.66;97426.34;6244938;27;1238321;-66
2022/12/12 02:35:35;;;;;;;;;27.00;25.00;;;;;2.54;58.56;97426.16;6288644;27;96911;-67
2022/12/12 02:38:50;;;;;;;;;27.60;25.60;;;;;2.52;58.38;97423.69;6299470;27;96360;-66
2022/12/12 02:42:00;;;;;;;;;30.00;27.00;;;;;2.59;58.39;97427.16;6314424;27;96379;-66
2022/12/12 02:45:12;;;;;;;;;25.00;22.00;;;;;2.45;58.44;97430.84;6289489;27;96211;-67
2022/12/12 02:48:24;;;;;;;;;23.20;21.20;;;;;2.43;58.45;97429.44;6288864;27;97101;-67
2022/12/12 02:51:29;;;;;;;;;27.00;24.00;;;;;2.31;59.33;97428.41;6291792;27;97298;-67
2022/12/12 02:54:33;;;;;;;;;30.60;25.00;;;;;2.33;59.10;97416.56;6287908;27;96499;-66
2022/12/12 02:57:40;;;;;;;;;22.25;21.00;;;;;2.42;58.91;97443.75;6288887;27;96290;-67
2022/12/12 03:00:55;;;;;;;;;25.00;23.00;;;;;2.40;58.95;97422.66;6288688;27;96323;-67
2022/12/12 03:07:47;;;;;;;;;25.00;23.60;;;;;2.45;59.06;97427.38;6269794;27;96969;-68
2022/12/12 03:10:57;;;;;;;;;23.60;20.60;;;;;2.45;59.28;97422.06;6287341;27;96345;-66
2022/12/12 03:14:11;;;;;;;;;25.00;23.00;;;;;2.42;58.83;97420.63;6261287;27;98917;-67
2022/12/12 03:17:25;;;;;;;;;25.00;24.00;;;;;2.47;59.01;97422.69;6288070;27;96820;-67
2022/12/12 03:20:36;;;;;;;;;24.60;23.00;;;;;2.46;58.91;97427.19;6288509;27;96363;-67
2022/12/12 03:23:44;;;;;;;;;23.00;20.40;;;;;2.49;59.02;97417.97;6286659;27;97564;-68
2022/12/12 03:26:52;;;;;;;;;22.80;20.40;;;;;2.48;58.50;97419.81;6299194;27;96264;-68
2022/12/12 03:30:02;;;;;;;;;26.00;24.00;;;;;2.49;58.94;97417.97;6304415;27;96240;-67
2022/12/12 03:33:16;;;;;;;;;25.60;24.40;;;;;2.57;58.35;97426.56;6287569;27;96324;-67
2022/12/12 03:36:27;;;;;;;;;22.00;20.50;;;;;2.62;58.43;97420.63;6288323;27;96235;-67
2022/12/12 03:39:36;;;;;;;;;24.25;21.75;;;;;2.66;57.94;97415.69;6286548;27;96308;-67
2022/12/12 03:42:45;;;;;;;;;26.40;24.00;;;;;2.55;58.27;97420.63;6263481;27;96335;-67
2022/12/12 03:45:54;;;;;;;;;21.60;20.40;;;;;2.49;58.30;97424.09;6300622;27;96319;-67
2022/12/12 03:49:04;;;;;;;;;23.60;21.60;;;;;2.52;58.35;97417.56;6288113;27;97204;-67
2022/12/12 03:52:15;;;;;;;;;21.20;18.80;;;;;2.43;58.00;97398.34;6286993;27;96600;-66
2022/12/12 03:55:27;;;;;;;;;23.00;20.67;;;;;2.54;58.34;97421.63;6287626;27;96290;-67
2022/12/12 03:58:36;;;;;;;;;20.75;18.75;;;;;2.53;58.55;97419.19;6302713;27;96314;-68
2022/12/12 04:01:49;;;;;;;;;18.25;17.50;;;;;2.42;58.63;97422.47;6287101;27;96345;-67
2022/12/12 04:05:00;;;;;;;;;22.00;21.00;;;;;2.41;58.79;97410.19;6302740;27;96522;-66
2022/12/12 04:08:09;;;;;;;;;23.60;21.60;;;;;2.46;58.23;97416.53;6288253;27;96876;-67
2022/12/12 04:15:01;;;;;;;;;18.80;16.80;;;;;2.53;58.21;97414.69;6294604;27;96349;-67
2022/12/12 04:18:16;;;;;;;;;21.40;20.00;;;;;2.50;58.38;97424.91;6286788;27;96805;-66
2022/12/12 04:25:08;;;;;;;;;20.00;19.00;;;;;2.48;58.75;97409.19;6184905;28;96433;-67
2022/12/12 04:28:11;;;;;;;;;19.50;18.00;;;;;2.41;58.98;97416.34;6280398;27;96872;-67
2022/12/12 04:31:18;;;;;;;;;20.00;17.00;;;;;2.30;59.01;97397.53;6287670;27;96837;-67
2022/12/12 04:34:32;;;;;;;;;22.00;17.00;;;;;2.45;58.82;97414.06;6287167;27;96259;-67
2022/12/12 04:37:39;;;;;;;;;19.60;19.00;;;;;2.56;58.66;97421.44;6287733;27;96150;-67
2022/12/12 04:40:48;;;;;;;;;15.80;13.80;;;;;2.60;58.81;97428.78;6283999;27;97769;-67
2022/12/12 04:43:56;;;;;;;;;20.00;19.00;;;;;2.57;59.00;97421.25;6293433;27;96287;-66
2022/12/12 04:47:02;;;;;;;;;16.20;15.80;;;;;2.55;58.20;97394.00;6289708;27;98894;-67
2022/12/12 04:50:09;;;;;;;;;25.00;22.00;;;;;2.74;58.00;97424.25;6282529;27;96737;-67
2022/12/12 04:53:17;;;;;;;;;19.25;19.00;;;;;2.73;57.89;97430.63;6262721;27;96328;-67
2022/12/12 04:56:29;;;;;;;;;20.80;18.80;;;;;2.72;57.99;97434.31;6278813;27;96375;-67
2022/12/12 04:59:33;;;;;;;;;23.00;21.60;;;;;2.72;58.13;97430.84;6276983;27;96479;-67
2022/12/12 05:02:44;;;;;;;;;18.20;17.60;;;;;2.67;58.42;97435.97;6282606;27;96276;-66
2022/12/12 05:05:53;;;;;;;;;21.25;20.25;;;;;2.72;58.18;97431.66;6279918;27;97672;-67
2022/12/12 05:08:57;;;;;;;;;19.00;16.00;;;;;2.72;58.22;97430.84;6288279;27;97012;-66
2022/12/12 05:12:02;;;;;;;;;21.00;18.00;;;;;2.82;58.08;97440.03;6293352;27;96299;-67
2022/12/12 05:15:08;;;;;;;;;20.00;19.00;;;;;2.84;57.84;97437.13;6298459;27;96609;-67
2022/12/12 05:18:11;;;;;;;;;16.80;14.80;;;;;2.88;57.54;97433.84;6291488;27;96549;-67
2022/12/12 05:21:15;;;;;;;;;24.00;23.00;;;;;2.87;57.60;97424.25;6282540;27;96660;-66
2022/12/12 05:24:18;;;;;;;;;21.00;19.60;;;;;2.83;57.55;97407.06;6284426;27;96984;-66
2022/12/12 05:27:23;;;;;;;;;23.00;21.00;;;;;3.00;57.44;97424.22;6284668;27;96622;-67
2022/12/12 05:30:27;;;;;;;;;23.40;21.00;;;;;2.95;57.41;97425.84;6288477;27;96672;-67
2022/12/12 05:33:30;;;;;;;;;21.20;18.80;;;;;2.85;57.55;97436.13;6288078;27;96273;-67
2022/12/12 05:36:34;;;;;;;;;22.40;19.40;;;;;2.81;57.98;97435.72;6288828;27;96480;-67
2022/12/12 05:39:37;;;;;;;;;23.00;21.00;;;;;2.83;57.65;97438.19;6287076;27;96172;-67
2022/12/12 05:42:42;;;;;;;;;22.40;20.40;;;;;2.90;58.02;97438.97;6284016;27;96947;-66
2022/12/12 05:45:46;;;;;;;;;19.60;17.60;;;;;2.91;57.82;97427.31;6286796;27;96982;-67
2022/12/12 05:48:49;;;;;;;;;21.00;18.80;;;;;2.87;57.86;97432.25;6291840;27;96368;-67
2022/12/12 05:51:53;;;;;;;;;21.40;20.40;;;;;2.89;58.09;97434.66;6299864;27;97001;-67
2022/12/12 05:54:56;;;;;;;;;22.00;21.20;;;;;2.85;58.04;97438.78;6288340;27;96805;-66
2022/12/12 05:58:01;;;;;;;;;22.40;20.40;;;;;2.92;58.21;97447.59;6284429;27;96969;-66
2022/12/12 06:01:05;;;;;;;;;20.00;18.00;;;;;2.94;57.95;97451.66;6287521;27;98093;-67
2022/12/12 06:04:09;;;;;;;;;24.00;21.00;;;;;2.98;58.24;97450.22;6289750;27;97613;-67
2022/12/12 06:07:12;;;;;;;;;21.00;18.50;;;;;3.03;57.89;97449.56;6286639;27;97038;-67
2022/12/12 06:10:16;;;;;;;;;20.60;18.00;;;;;3.08;57.89;97446.31;6290524;27;96091;-67
2022/12/12 06:13:20;;;;;;;;;21.00;19.00;;;;;3.06;57.79;97465.16;6286870;27;97702;-68
2022/12/12 06:16:24;;;;;;;;;23.00;19.67;;;;;3.04;57.24;97459.22;6287496;27;97729;-68
2022/12/12 06:19:27;;;;;;;;;22.00;19.75;;;;;2.96;57.70;97462.09;6289466;27;96812;-68
2022/12/12 06:22:31;;;;;;;;;22.40;20.40;;;;;3.03;57.96;97465.56;6281956;27;97377;-68
2022/12/12 06:25:34;;;;;;;;;23.25;22.25;;;;;2.98;57.99;97468.06;6284957;27;97655;-67
2022/12/12 06:28:39;;;;;;;;;25.75;23.50;;;;;2.88;58.46;97468.44;6282206;27;97084;-67
2022/12/12 06:31:43;;;;;;;;;23.60;23.00;;;;;2.79;58.84;97471.53;6281918;27;96583;-67
2022/12/12 06:34:46;;;;;;;;;27.40;25.40;;;;;2.88;58.57;97471.09;6299991;27;97850;-67
2022/12/12 06:37:49;;;;;;;;;27.20;22.20;;;;;2.96;58.25;97478.06;6272908;27;96749;-68
2022/12/12 06:40:53;;;;;;;;;24.00;21.00;;;;;2.99;58.24;97475.81;6283200;27;96397;-68
2022/12/12 06:43:58;;;;;;;;;27.00;24.00;;;;;3.03;58.30;97486.84;6287567;27;96386;-68
2022/12/12 06:47:01;;;;;;;;;26.00;25.00;;;;;3.08;58.12;97473.72;6287648;27;96037;-66
2022/12/12 06:50:05;;;;;;;;;29.00;26.80;;;;;3.14;58.16;97483.56;6287920;27;96481;-68
2022/12/12 06:53:09;;;;;;;;;30.50;27.00;;;;;3.11;58.35;97489.31;6288957;27;96146;-67
2022/12/12 06:56:14;;;;;;;;;29.00;24.20;;;;;3.16;58.18;97486.03;6287642;27;96279;-68
2022/12/12 06:59:19;;;;;;;;;22.00;19.00;;;;;3.18;57.75;97491.94;6287024;27;96580;-68
2022/12/12 07:02:23;;;;;;;;;26.00;24.40;;;;;3.14;57.88;97486.22;6285857;27;96290;-67
2022/12/12 07:05:32;;;;;;;;;24.67;23.33;;;;;3.14;57.53;97491.53;6286649;27;96404;-67
2022/12/12 07:08:36;;;;;;;;;36.00;32.00;;;;;3.10;57.73;97489.50;6285436;27;96893;-67
2022/12/12 07:11:41;;;;;;;;;28.25;24.75;;;;;3.18;58.03;97490.09;6286321;27;96907;-67
2022/12/12 07:14:46;;;;;;;;;27.75;23.75;;;;;3.12;57.72;97477.63;6286911;27;97059;-67
2022/12/12 07:17:51;;;;;;;;;28.80;26.20;;;;;3.30;57.75;97488.44;6286052;27;98469;-67
2022/12/12 07:20:55;;;;;;;;;31.20;28.20;;;;;3.33;57.51;97503.16;6303509;27;96421;-67
2022/12/12 07:23:58;;;;;;;;;28.00;26.00;;;;;3.15;57.82;97489.69;6295992;27;96462;-66
2022/12/12 07:27:01;;;;;;;;;24.40;22.00;;;;;3.32;57.58;97493.56;6271859;27;96684;-67
2022/12/12 07:30:08;;;;;;;;;30.40;28.40;;;;;3.34;57.03;97491.50;6286426;27;97015;-67
2022/12/12 07:33:12;;;;;;;;;27.40;25.00;;;;;3.50;56.85;97493.69;6289009;27;96905;-67
2022/12/12 07:36:16;;;;;;;;;27.80;24.80;;;;;3.55;56.90;97485.06;6291900;27;96579;-67
2022/12/12 07:39:20;;;;;;;;;25.60;22.40;;;;;3.49;56.39;97494.72;6292094;27;96965;-68
2022/12/12 07:42:23;;;;;;;;;29.00;27.00;;;;;3.56;56.43;97490.19;6287965;27;96338;-67
2022/12/12 07:45:28;;;;;;;;;28.40;27.40;;;;;3.54;55.87;97499.41;6289233;27;96830;-67
2022/12/12 07:48:32;;;;;;;;;24.60;22.20;;;;;3.59;56.66;97496.94;6285558;27;96472;-67
2022/12/12 07:51:37;;;;;;;;;26.00;25.00;;;;;3.44;56.30;97483.88;6287005;27;96307;-67
2022/12/12 07:54:46;;;;;;;;;27.00;24.00;;;;;3.45;56.59;97494.34;6293117;27;96557;-68
2022/12/12 07:57:49;;;;;;;;;29.50;27.25;;;;;3.46;56.58;97497.81;6289895;27;96201;-67
2022/12/12 08:00:54;;;;;;;;;28.00;24.50;;;;;3.53;56.83;97495.94;6286063;27;96386;-67
2022/12/12 08:03:57;;;;;;;;;26.00;26.00;;;;;3.61;56.37;97498.38;6287400;27;96623;-68
2022/12/12 08:07:01;;;;;;;;;30.25;27.25;;;;;3.59;56.31;97488.94;6292074;27;96947;-68
2022/12/12 08:10:10;;;;;;;;;28.00;27.00;;;;;3.57;56.64;97499.81;6285359;27;96745;-67
2022/12/12 08:13:14;;;;;;;;;25.50;23.50;;;;;3.06;56.61;97441.19;6291986;27;96891;-67
2022/12/12 08:16:21;;;;;;;;;29.00;26.00;;;;;3.49;56.97;97498.22;6287694;27;96338;-67
2022/12/12 08:19:25;;;;;;;;;28.00;25.00;;;;;3.43;57.04;97503.53;6290400;27;96510;-67
2022/12/12 08:22:28;;;;;;;;;28.00;25.20;;;;;3.45;57.42;97506.84;6299252;27;97884;-67
2022/12/12 08:25:32;;;;;;;;;26.00;24.00;;;;;3.50;56.63;97501.69;6287052;27;96922;-68
2022/12/12 08:28:37;;;;;;;;;29.75;26.75;;;;;3.31;56.98;97508.72;6285011;27;96193;-67
2022/12/12 08:31:42;;;;;;;;;30.50;28.00;;;;;3.46;57.43;97509.28;6302910;27;96913;-67
2022/12/12 08:34:46;;;;;;;;;28.00;27.00;;;;;3.39;57.40;97524.47;6285699;27;96659;-68
2022/12/12 08:37:49;;;;;;;;;27.00;24.00;;;;;3.36;57.58;97516.91;6289781;27;96417;-67
2022/12/12 08:40:52;;;;;;;;;26.40;24.00;;;;;3.48;57.43;97523.22;6285181;27;96792;-68
2022/12/12 08:43:56;;;;;;;;;27.20;26.60;;;;;3.52;57.06;97506.81;6286866;27;96343;-68
2022/12/12 08:47:00;;;;;;;;;24.80;22.00;;;;;3.51;57.38;97508.66;6284139;27;98663;-68
2022/12/12 08:50:05;;;;;;;;;29.00;25.40;;;;;3.59;57.33;97515.59;6267302;27;96589;-68
2022/12/12 08:53:09;;;;;;;;;29.00;25.20;;;;;3.60;56.79;97515.38;6286633;27;96436;-68
2022/12/12 08:56:12;;;;;;;;;28.00;26.00;;;;;3.64;56.69;97516.59;6286692;27;96293;-67
2022/12/12 08:59:16;;;;;;;;;27.20;24.20;;;;;3.55;56.82;97517.03;6293931;27;96719;-68
2022/12/12 09:02:21;;;;;;;;;34.20;30.40;;;;;3.53;57.00;97514.56;6291229;27;96351;-67
2022/12/12 09:05:24;;;;;;;;;28.60;27.60;;;;;3.59;57.00;97512.94;6291215;27;96222;-67
2022/12/12 09:08:28;;;;;;;;;32.00;28.40;;;;;3.63;56.64;97522.13;6289890;27;96262;-68
2022/12/12 09:11:31;;;;;;;;;31.00;28.00;;;;;3.66;56.66;97514.56;6289710;27;96427;-67
2022/12/12 09:14:35;;;;;;;;;27.00;25.33;;;;;3.74;56.48;97518.81;6289891;27;96421;-66
2022/12/12 09:17:40;;;;;;;;;27.00;26.00;;;;;3.71;56.46;97521.91;6305509;27;96856;-68
2022/12/12 09:20:47;;;;;;;;;29.00;27.60;;;;;3.77;55.99;97521.88;6280970;27;96839;-67
2022/12/12 09:23:50;;;;;;;;;31.60;26.00;;;;;3.86;55.44;97517.13;6290800;27;96320;-67
2022/12/12 09:26:54;;;;;;;;;29.00;27.00;;;;;3.95;55.73;97528.38;6291370;27;96221;-67
2022/12/12 09:29:57;;;;;;;;;31.80;29.80;;;;;3.81;55.80;97528.41;6291172;27;96110;-67
2022/12/12 09:33:02;;;;;;;;;31.00;29.75;;;;;3.87;55.42;97519.56;6288846;27;98465;-67
2022/12/12 09:36:07;;;;;;;;;30.00;28.25;;;;;3.96;55.96;97519.34;6289914;27;96243;-67
2022/12/12 09:39:11;;;;;;;;;29.80;26.60;;;;;3.93;55.77;97524.06;6290602;27;96294;-67
2022/12/12 09:42:21;;;;;;;;;36.60;32.00;;;;;4.02;55.91;97524.63;6290491;27;96256;-67
2022/12/12 09:45:25;;;;;;;;;32.20;26.60;;;;;4.15;55.19;97521.06;6291693;27;96421;-68
2022/12/12 09:48:40;;;;;;;;;38.50;33.00;;;;;4.19;55.08;97516.94;6290989;27;96312;-67
2022/12/12 09:51:47;;;;;;;;;37.00;30.60;;;;;4.34;54.66;97514.81;6291367;27;96247;-67
2022/12/12 09:54:51;;;;;;;;;27.00;25.20;;;;;4.29;54.69;97522.63;6281202;27;97164;-67
2022/12/12 09:58:00;;;;;;;;;33.50;29.75;;;;;4.16;54.62;97510.16;6265514;27;96254;-68
2022/12/12 10:01:10;;;;;;;;;33.00;29.00;;;;;4.26;55.10;97518.53;6265463;27;96216;-67
2022/12/12 10:04:23;;;;;;;;;30.00;27.40;;;;;4.28;55.25;97508.47;6289806;27;96625;-68
2022/12/12 10:07:34;;;;;;;;;31.60;29.00;;;;;4.39;54.68;97514.97;6304016;27;96350;-68
2022/12/12 10:10:41;;;;;;;;;32.50;29.25;;;;;4.57;54.22;97516.88;6291709;27;96522;-68
2022/12/12 10:13:44;;;;;;;;;26.00;24.25;;;;;4.67;54.07;97525.22;6286761;27;96611;-66
2022/12/12 10:16:48;;;;;;;;;31.60;29.60;;;;;4.72;53.81;97523.53;6295860;27;96902;-68
2022/12/12 10:20:04;;;;;;;;;30.00;26.80;;;;;4.66;53.54;97521.72;6288169;27;96318;-68
2022/12/12 10:23:14;;;;;;;;;28.80;26.80;;;;;4.66;53.68;97527.06;6286687;27;97385;-67
2022/12/12 10:26:21;;;;;;;;;29.75;27.25;;;;;4.63;53.71;97516.84;6286764;27;96380;-67
2022/12/12 10:29:27;;;;;;;;;29.40;25.60;;;;;4.73;53.66;97521.69;6287327;27;96439;-67
2022/12/12 10:32:43;;;;;;;;;27.75;27.50;;;;;4.58;53.03;97518.53;6287402;27;96965;-68
2022/12/12 10:36:00;;;;;;;;;30.25;28.00;;;;;4.58;53.63;97515.84;6288574;27;96727;-67
2022/12/12 10:39:14;;;;;;;;;27.80;26.00;;;;;4.84;53.35;97520.19;6288451;27;96171;-68
2022/12/12 10:42:27;;;;;;;;;26.60;26.00;;;;;4.63;53.18;97506.16;6289690;27;96329;-68
2022/12/12 10:45:44;;;;;;;;;31.20;28.60;;;;;4.85;53.33;97517.25;6290197;27;96781;-68
2022/12/12 10:48:49;;;;;;;;;29.00;25.00;;;;;4.89;52.79;97513.13;6291878;27;96502;-67
2022/12/12 10:51:56;;;;;;;;;30.60;27.00;;;;;4.92;52.77;97512.69;6286308;27;96262;-67
2022/12/12 10:55:00;;;;;;;;;30.00;28.00;;;;;4.78;52.67;97514.66;6289535;27;96258;-68
2022/12/12 10:58:05;;;;;;;;;31.60;29.60;;;;;4.96;53.08;97505.88;6284865;27;96562;-68
2022/12/12 11:01:18;;;;;;;;;32.40;29.60;;;;;4.94;53.17;97520.47;6278710;27;96302;-67
2022/12/12 11:04:40;;;;;;;;;23.50;19.75;;;;;4.94;52.49;97509.78;6286712;27;96679;-67
2022/12/12 11:07:47;;;;;;;;;27.50;24.75;;;;;4.91;52.21;97518.25;6288976;27;97182;-68
2022/12/12 11:11:05;;;;;;;;;29.40;27.40;;;;;4.84;53.23;97507.63;6289710;27;96921;-68
2022/12/12 11:14:26;;;;;;;;;31.50;29.25;;;;;4.90;53.24;97508.59;6289322;27;96351;-68
2022/12/12 11:17:33;;;;;;;;;29.00;26.00;;;;;4.63;53.38;97498.16;6288702;27;96290;-68
2022/12/12 11:20:44;;;;;;;;;32.00;28.00;;;;;4.66;53.28;97513.72;6285595;27;97353;-68
2022/12/12 11:23:54;;;;;;;;;29.00;26.60;;;;;4.67;53.57;97502.03;6286588;27;96377;-67
2022/12/12 11:27:00;;;;;;;;;34.75;30.50;;;;;4.57;53.60;97508.88;6284872;27;97198;-67
2022/12/12 11:30:06;;;;;;;;;31.25;29.00;;;;;4.58;54.05;97507.84;6273096;27;96301;-67
2022/12/12 11:33:19;;;;;;;;;25.40;21.00;;;;;4.46;54.39;97507.72;6287134;27;96326;-66
2022/12/12 11:36:30;;;;;;;;;27.40;25.00;;;;;4.42;54.17;97511.84;6288564;27;96836;-67
2022/12/12 11:39:41;;;;;;;;;31.20;29.00;;;;;4.42;54.66;97509.19;6286964;27;98665;-67
2022/12/12 11:42:44;;;;;;;;;29.00;28.00;;;;;4.28;54.92;97508.47;6288762;27;96918;-68
2022/12/12 11:46:02;;;;;;;;;30.00;29.00;;;;;4.22;55.09;97506.66;6288576;27;96335;-68
2022/12/12 11:49:17;;;;;;;;;34.80;31.60;;;;;4.28;55.15;97505.81;6304029;27;96374;-67
2022/12/12 11:52:24;;;;;;;;;32.00;28.00;;;;;4.28;55.39;97513.81;6285876;27;96797;-68
2022/12/12 11:55:39;;;;;;;;;26.40;25.40;;;;;4.45;55.39;97507.97;6288317;27;96344;-67
2022/12/12 11:58:52;;;;;;;;;27.40;24.60;;;;;4.35;55.12;97514.56;6285635;27;97033;-66
2022/12/12 12:02:11;;;;;;;;;30.25;27.25;;;;;4.38;55.43;97517.84;6286249;27;96166;-67
2022/12/12 12:05:25;;;;;;;;;30.20;26.00;;;;;4.35;55.48;97519.91;6287195;27;96146;-66
2022/12/12 12:08:49;;;;;;;;;34.00;29.40;;;;;4.26;55.71;97513.19;6273612;27;96445;-67
2022/12/12 12:12:03;;;;;;;;;30.20;26.40;;;;;4.02;56.06;97519.28;6287833;27;96319;-67
2022/12/12 12:15:28;;;;;;;;;31.80;28.40;;;;;4.28;56.19;97519.13;6277757;27;96407;-66
2022/12/12 12:18:46;;;;;;;;;30.60;27.00;;;;;4.33;55.99;97521.16;6286738;27;96925;-66
2022/12/12 12:22:00;;;;;;;;;27.40;25.80;;;;;4.24;55.88;97512.59;6278480;27;97111;-66
2022/12/12 12:25:30;;;;;;;;;30.00;27.50;;;;;4.29;56.10;97520.78;6283054;27;96576;-66
2022/12/12 12:29:07;;;;;;;;;29.60;25.00;;;;;4.27;56.28;97528.16;6285002;27;96413;-67
2022/12/12 12:32:18;;;;;;;;;31.00;29.00;;;;;4.28;56.32;97516.47;6276561;27;96241;-67
2022/12/12 12:35:30;;;;;;;;;32.00;30.00;;;;;4.27;56.43;97517.50;6288640;27;96297;-67
2022/12/12 12:38:49;;;;;;;;;30.00;28.00;;;;;4.22;56.50;97512.00;6288118;27;97290;-67
2022/12/12 12:42:12;;;;;;;;;28.40;26.00;;;;;4.01;56.64;97498.97;6289386;27;97069;-67
2022/12/12 12:45:21;;;;;;;;;27.00;25.00;;;;;4.15;56.82;97521.91;6289586;27;96287;-67
2022/12/12 12:48:29;;;;;;;;;31.00;29.40;;;;;4.10;57.22;97519.06;6290434;27;96782;-67
2022/12/12 12:51:36;;;;;;;;;27.60;25.40;;;;;4.03;57.39;97518.25;6290249;27;96421;-68
2022/12/12 12:54:42;;;;;;;;;26.40;25.00;;;;;3.95;57.51;97523.03;6294000;27;96252;-68
2022/12/12 12:57:48;;;;;;;;;29.60;25.00;;;;;3.79;58.17;97519.00;6289939;27;96354;-67
2022/12/12 13:00:59;;;;;;;;;26.20;24.20;;;;;3.79;57.86;97524.31;6291925;27;96260;-67
2022/12/12 13:04:07;;;;;;;;;27.50;26.50;;;;;3.71;58.38;97528.06;6290572;27;96314;-68
2022/12/12 13:07:16;;;;;;;;;28.00;26.00;;;;;3.81;58.51;97530.28;6291663;27;96556;-67
2022/12/12 13:10:22;;;;;;;;;25.00;24.40;;;;;3.87;58.17;97529.41;6289843;27;97172;-67
2022/12/12 13:13:29;;;;;;;;;24.20;23.20;;;;;3.93;58.10;97531.22;6290954;27;96292;-67
2022/12/12 13:16:34;;;;;;;;;25.60;24.60;;;;;3.78;58.32;97530.69;6291511;27;96376;-67
2022/12/12 13:19:42;;;;;;;;;25.67;24.67;;;;;3.79;58.01;97527.00;6290673;27;96520;-67
2022/12/12 13:23:00;;;;;;;;;24.20;23.60;;;;;3.86;58.01;97541.13;6291422;27;96317;-67
2022/12/12 13:26:09;;;;;;;;;29.00;25.20;;;;;3.88;58.12;97534.53;6291294;27;97072;-66
2022/12/12 13:29:31;;;;;;;;;24.00;23.00;;;;;3.86;57.83;97551.78;6288192;27;96719;-67
2022/12/12 13:33:15;;;;;;;;;23.00;21.00;;;;;3.93;57.99;97553.38;6290556;27;96468;-67
2022/12/12 13:36:23;;;;;;;;;26.40;23.60;;;;;3.92;57.94;97545.59;6290068;27;96411;-67
2022/12/12 13:39:34;;;;;;;;;25.00;22.25;;;;;4.00;58.02;97550.69;6290952;27;96222;-67
2022/12/12 13:42:52;;;;;;;;;23.80;20.20;;;;;4.07;57.72;97561.31;6290178;27;96821;-66
2022/12/12 13:45:56;;;;;;;;;25.75;22.50;;;;;3.93;57.75;97534.72;6290023;27;96967;-68
2022/12/12 13:49:10;;;;;;;;;28.00;26.00;;;;;4.10;57.72;97550.22;6288575;27;96589;-67
2022/12/12 13:52:26;;;;;;;;;28.00;25.80;;;;;4.06;57.62;97541.00;6290173;27;96282;-67
2022/12/12 13:55:29;;;;;;;;;30.50;26.75;;;;;4.11;57.65;97560.66;6304962;27;96254;-67
2022/12/12 13:58:35;;;;;;;;;30.00;27.00;;;;;3.99;58.07;97573.03;6286594;27;97696;-67
2022/12/12 14:01:40;;;;;;;;;28.75;25.25;;;;;4.06;57.91;97571.16;6289805;27;96973;-67
2022/12/12 14:04:46;;;;;;;;;29.80;26.20;;;;;3.98;58.10;97575.91;6291632;27;96481;-67
2022/12/12 14:07:51;;;;;;;;;29.00;28.50;;;;;3.89;58.32;97581.50;6303403;27;96297;-67
2022/12/12 14:10:59;;;;;;;;;24.50;24.00;;;;;4.02;58.04;97577.13;6274369;27;96579;-66
2022/12/12 14:14:20;;;;;;;;;29.20;27.60;;;;;4.01;57.87;97572.84;6286369;27;97217;-67
2022/12/12 14:17:26;;;;;;;;;28.00;27.00;;;;;3.79;58.50;97562.47;6283958;27;96758;-67
2022/12/12 14:20:34;;;;;;;;;29.40;26.40;;;;;3.87;58.18;97588.88;6286180;27;96557;-69
2022/12/12 14:23:39;;;;;;;;;25.00;24.80;;;;;3.72;58.48;97588.31;6286316;27;96883;-67
2022/12/12 14:26:49;;;;;;;;;27.00;24.50;;;;;3.78;58.59;97598.13;6287421;27;96775;-67
2022/12/12 14:29:53;;;;;;;;;26.60;26.00;;;;;3.81;58.36;97591.59;6290749;27;96345;-68
2022/12/12 14:33:05;;;;;;;;;26.00;25.00;;;;;3.79;58.83;97598.97;6286940;27;96890;-66
2022/12/12 14:36:29;;;;;;;;;29.60;26.60;;;;;3.83;58.44;97592.19;6294423;27;96803;-67
2022/12/12 14:39:56;;;;;;;;;28.20;25.00;;;;;3.79;58.66;97604.28;6287530;27;96504;-68
2022/12/12 14:43:04;;;;;;;;;30.00;29.00;;;;;3.69;58.71;97590.59;6288686;27;96373;-67
2022/12/12 14:46:23;;;;;;;;;25.00;24.60;;;;;3.77;58.68;97599.16;6276175;27;96335;-66